| time (UTC) | temp F | wind direction | speed MPH | gust MPH | rain 1hr in | rain 24hr in | rain mn in | humidity % | barometer mb |
| 20260508225156 | 60 | 145 | 0.0 | 0.0 | 0.00 | 0.00 | 0.00 | 70 | 1011.5 |
| 20260508224654 | 60 | 145 | 0.0 | 2.0 | 0.00 | 0.00 | 0.00 | 69 | 1011.4 |
| 20260508224151 | 61 | 144 | 3.0 | 3.0 | 0.00 | 0.00 | 0.00 | 69 | 1011.6 |
| 20260508223649 | 61 | 114 | 0.0 | 0.0 | 0.00 | 0.00 | 0.00 | 68 | 1011.7 |
| 20260508223146 | 60 | 140 | 0.0 | 3.0 | 0.00 | 0.00 | 0.00 | 68 | 1011.6 |
| 20260508222643 | 61 | 140 | 0.0 | 0.0 | 0.00 | 0.00 | 0.00 | 68 | 1011.3 |
| 20260508222140 | 61 | 140 | 0.0 | 0.0 | 0.00 | 0.00 | 0.00 | 67 | 1011.4 |
| 20260508221637 | 61 | 151 | 0.0 | 0.0 | 0.00 | 0.00 | 0.00 | 67 | 1011.7 |
| 20260508221132 | 61 | 151 | 0.0 | 2.0 | 0.00 | 0.00 | 0.00 | 67 | 1011.5 |
| 20260508220630 | 62 | 151 | 2.0 | 2.0 | 0.00 | 0.00 | 0.00 | 66 | 1011.7 |
| 20260508220126 | 62 | 106 | 0.0 | 0.0 | 0.00 | 0.00 | 0.00 | 66 | 1011.7 |
| 20260508215622 | 62 | 111 | 0.0 | 2.0 | 0.00 | 0.00 | 0.00 | 64 | 1011.5 |
| 20260508215119 | 62 | 114 | 0.0 | 0.0 | 0.00 | 0.00 | 0.00 | 63 | 1011.6 |
| 20260508214616 | 63 | 180 | 0.0 | 3.0 | 0.00 | 0.00 | 0.00 | 61 | 1011.7 |
| 20260508214113 | 63 | 111 | 2.0 | 3.0 | 0.00 | 0.00 | 0.00 | 61 | 1011.4 |
| 20260508213610 | 63 | 114 | 0.0 | 3.0 | 0.00 | 0.00 | 0.00 | 61 | 1011.5 |
| 20260508213106 | 63 | 145 | 2.0 | 3.0 | 0.00 | 0.00 | 0.00 | 60 | 1011.7 |
| 20260508212603 | 63 | 187 | 2.0 | 5.0 | 0.00 | 0.00 | 0.00 | 60 | 1011.6 |
| 20260508212059 | 63 | 126 | 0.0 | 3.0 | 0.00 | 0.00 | 0.00 | 60 | 1011.9 |
| 20260508211555 | 63 | 191 | 0.0 | 7.0 | 0.00 | 0.00 | 0.00 | 59 | 1012.2 |
| 20260508211051 | 63 | 156 | 3.0 | 4.0 | 0.00 | 0.00 | 0.00 | 59 | 1011.9 |
| 20260508210548 | 63 | 180 | 3.0 | 6.0 | 0.00 | 0.00 | 0.00 | 58 | 1011.7 |
| 20260508210045 | 63 | 157 | 3.0 | 5.0 | 0.00 | 0.00 | 0.00 | 58 | 1012.0 |
| 20260508205542 | 64 | 148 | 0.0 | 3.0 | 0.00 | 0.00 | 0.00 | 58 | 1012.0 |
| 20260508205039 | 64 | 160 | 0.0 | 5.0 | 0.00 | 0.00 | 0.00 | 57 | 1012.2 |
| 20260508204535 | 64 | 221 | 3.0 | 3.0 | 0.00 | 0.00 | 0.00 | 57 | 1012.3 |
| 20260508204031 | 64 | 180 | 2.0 | 7.0 | 0.00 | 0.00 | 0.00 | 56 | 1012.4 |
| 20260508203528 | 64 | 233 | 0.0 | 5.0 | 0.00 | 0.00 | 0.00 | 56 | 1012.2 |
| 20260508203024 | 64 | 180 | 3.0 | 6.0 | 0.00 | 0.00 | 0.00 | 55 | 1012.1 |
| 20260508202521 | 64 | 204 | 0.0 | 9.0 | 0.00 | 0.00 | 0.00 | 57 | 1012.3 |
| 20260508202017 | 64 | 35 | 0.0 | 4.0 | 0.00 | 0.00 | 0.00 | 57 | 1012.5 |
| 20260508201514 | 64 | 225 | 3.0 | 7.0 | 0.00 | 0.00 | 0.00 | 56 | 1012.4 |
| 20260508201011 | 64 | 244 | 4.0 | 11.0 | 0.00 | 0.00 | 0.00 | 55 | 1012.6 |
| 20260508200508 | 64 | 182 | 0.0 | 7.0 | 0.00 | 0.00 | 0.00 | 56 | 1012.6 |
| 20260508200004 | 64 | 127 | 5.0 | 9.0 | 0.00 | 0.00 | 0.00 | 55 | 1012.7 |
| 20260508195500 | 64 | 229 | 5.0 | 7.0 | 0.00 | 0.00 | 0.00 | 55 | 1012.9 |
| 20260508194956 | 65 | 226 | 6.0 | 9.0 | 0.00 | 0.00 | 0.00 | 54 | 1012.9 |
| 20260508194454 | 65 | 273 | 5.0 | 12.0 | 0.00 | 0.00 | 0.00 | 54 | 1012.9 |
| 20260508193951 | 65 | 210 | 5.0 | 9.0 | 0.00 | 0.00 | 0.00 | 54 | 1012.9 |
| 20260508193447 | 65 | 105 | 2.0 | 6.0 | 0.00 | 0.00 | 0.00 | 54 | 1013.0 |
| 20260508192944 | 65 | 141 | 6.0 | 8.0 | 0.00 | 0.00 | 0.00 | 54 | 1012.7 |
| 20260508192440 | 66 | 225 | 0.0 | 6.0 | 0.00 | 0.00 | 0.00 | 55 | 1013.0 |
| 20260508191937 | 67 | 210 | 3.0 | 10.0 | 0.00 | 0.00 | 0.00 | 55 | 1013.1 |
| 20260508191435 | 67 | 157 | 2.0 | 9.0 | 0.00 | 0.00 | 0.00 | 53 | 1013.1 |
| 20260508190931 | 66 | 285 | 3.0 | 7.0 | 0.00 | 0.00 | 0.00 | 53 | 1013.0 |
| 20260508190429 | 65 | 239 | 8.0 | 10.0 | 0.00 | 0.00 | 0.00 | 53 | 1012.9 |
| 20260508185925 | 65 | 190 | 3.0 | 11.0 | 0.00 | 0.00 | 0.00 | 54 | 1013.2 |
| 20260508185423 | 65 | 183 | 3.0 | 13.0 | 0.00 | 0.00 | 0.00 | 52 | 1013.3 |
| 20260508184920 | 66 | 187 | 4.0 | 12.0 | 0.00 | 0.00 | 0.00 | 52 | 1013.4 |
| 20260508184417 | 66 | 265 | 0.0 | 21.0 | 0.00 | 0.00 | 0.00 | 54 | 1013.3 |
| 20260508183913 | 67 | 207 | 7.0 | 13.0 | 0.00 | 0.00 | 0.00 | 52 | 1013.6 |
| 20260508183410 | 67 | 218 | 9.0 | 15.0 | 0.00 | 0.00 | 0.00 | 52 | 1013.3 |
| 20260508182905 | 68 | 105 | 0.0 | 8.0 | 0.00 | 0.00 | 0.00 | 58 | 1013.2 |
| 20260508182403 | 68 | 172 | 5.0 | 16.0 | 0.00 | 0.00 | 0.00 | 54 | 1013.3 |
| 20260508181858 | 68 | 58 | 0.0 | 9.0 | 0.00 | 0.00 | 0.00 | 55 | 1013.5 |
| 20260508181355 | 67 | 233 | 0.0 | 10.0 | 0.00 | 0.00 | 0.00 | 54 | 1013.4 |
| 20260508180852 | 68 | 33 | 6.0 | 13.0 | 0.00 | 0.00 | 0.00 | 54 | 1013.6 |
| 20260508180349 | 67 | 195 | 3.0 | 9.0 | 0.00 | 0.00 | 0.00 | 55 | 1013.8 |
| 20260508175845 | 65 | 169 | 6.0 | 9.0 | 0.00 | 0.00 | 0.00 | 56 | 1014.0 |
| 20260508175342 | 64 | 186 | 4.0 | 11.0 | 0.00 | 0.00 | 0.00 | 56 | 1013.8 |
| 20260508174840 | 64 | 8 | 0.0 | 9.0 | 0.00 | 0.00 | 0.00 | 57 | 1014.1 |
| 20260508174337 | 64 | 205 | 5.0 | 7.0 | 0.00 | 0.00 | 0.00 | 55 | 1014.3 |
| 20260508173833 | 65 | 207 | 6.0 | 10.0 | 0.00 | 0.00 | 0.00 | 55 | 1014.0 |
| 20260508173331 | 65 | 213 | 7.0 | 11.0 | 0.00 | 0.00 | 0.00 | 54 | 1014.2 |
| 20260508172826 | 65 | 258 | 5.0 | 13.0 | 0.00 | 0.00 | 0.00 | 55 | 1014.3 |
| 20260508172324 | 65 | 208 | 7.0 | 14.0 | 0.00 | 0.00 | 0.00 | 54 | 1014.3 |
| 20260508171820 | 66 | 78 | 5.0 | 9.0 | 0.00 | 0.00 | 0.00 | 54 | 1014.3 |
| 20260508171316 | 67 | 218 | 3.0 | 11.0 | 0.00 | 0.00 | 0.00 | 53 | 1014.3 |
| 20260508170813 | 65 | 206 | 5.0 | 13.0 | 0.00 | 0.00 | 0.00 | 54 | 1014.5 |
| 20260508170312 | 65 | 205 | 4.0 | 11.0 | 0.00 | 0.00 | 0.00 | 55 | 1014.8 |
| 20260508165808 | 66 | 222 | 5.0 | 13.0 | 0.00 | 0.00 | 0.00 | 53 | 1014.8 |
| 20260508165307 | 66 | 212 | 3.0 | 11.0 | 0.00 | 0.00 | 0.00 | 54 | 1014.7 |
| 20260508164801 | 67 | 208 | 9.0 | 14.0 | 0.00 | 0.00 | 0.00 | 53 | 1015.0 |
| 20260508164258 | 66 | 208 | 3.0 | 7.0 | 0.00 | 0.00 | 0.00 | 56 | 1015.1 |
| 20260508163756 | 66 | 183 | 7.0 | 9.0 | 0.00 | 0.00 | 0.00 | 57 | 1015.1 |
| 20260508163254 | 65 | 192 | 0.0 | 10.0 | 0.00 | 0.00 | 0.00 | 55 | 1015.2 |
| 20260508162749 | 65 | 247 | 6.0 | 9.0 | 0.00 | 0.00 | 0.00 | 55 | 1015.2 |
| 20260508162246 | 65 | 198 | 5.0 | 17.0 | 0.00 | 0.00 | 0.00 | 53 | 1015.5 |
| 20260508161743 | 66 | 258 | 0.0 | 9.0 | 0.00 | 0.00 | 0.00 | 57 | 1015.1 |
| 20260508161240 | 65 | 301 | 8.0 | 8.0 | 0.00 | 0.00 | 0.00 | 56 | 1015.2 |
| 20260508160738 | 65 | 206 | 5.0 | 11.0 | 0.00 | 0.00 | 0.00 | 54 | 1015.3 |
| 20260508160237 | 65 | 209 | 6.0 | 9.0 | 0.00 | 0.00 | 0.00 | 57 | 1015.1 |
| 20260508155732 | 64 | 182 | 10.0 | 15.0 | 0.00 | 0.00 | 0.00 | 55 | 1015.3 |
| 20260508155230 | 64 | 266 | 7.0 | 11.0 | 0.00 | 0.00 | 0.00 | 54 | 1015.3 |
| 20260508154726 | 66 | 200 | 5.0 | 10.0 | 0.00 | 0.00 | 0.00 | 55 | 1015.5 |
| 20260508154223 | 66 | 225 | 0.0 | 13.0 | 0.00 | 0.00 | 0.00 | 58 | 1015.3 |
| 20260508153720 | 65 | 34 | 8.0 | 10.0 | 0.00 | 0.00 | 0.00 | 55 | 1015.6 |
| 20260508153217 | 66 | 129 | 5.0 | 12.0 | 0.00 | 0.00 | 0.00 | 56 | 1015.7 |
| 20260508152714 | 65 | 192 | 3.0 | 10.0 | 0.00 | 0.00 | 0.00 | 56 | 1015.6 |
| 20260508152209 | 65 | 206 | 0.0 | 6.0 | 0.00 | 0.00 | 0.00 | 61 | 1015.6 |
| 20260508151706 | 63 | 194 | 3.0 | 9.0 | 0.00 | 0.00 | 0.00 | 59 | 1015.7 |
| 20260508151203 | 62 | 220 | 7.0 | 15.0 | 0.00 | 0.00 | 0.00 | 59 | 1015.8 |
| 20260508150700 | 62 | 220 | 7.0 | 8.0 | 0.00 | 0.00 | 0.00 | 61 | 1015.7 |
| 20260508150156 | 61 | 175 | 3.0 | 9.0 | 0.00 | 0.00 | 0.00 | 59 | 1015.9 |
| 20260508145652 | 61 | 203 | 5.0 | 8.0 | 0.00 | 0.00 | 0.00 | 60 | 1016.0 |
| 20260508145148 | 60 | 173 | 2.0 | 7.0 | 0.00 | 0.00 | 0.00 | 60 | 1015.9 |
| 20260508144646 | 60 | 192 | 7.0 | 14.0 | 0.00 | 0.00 | 0.00 | 60 | 1015.9 |
| 20260508144144 | 60 | 214 | 7.0 | 11.0 | 0.00 | 0.00 | 0.00 | 59 | 1016.1 |
| 20260508143641 | 60 | 270 | 0.0 | 7.0 | 0.00 | 0.00 | 0.00 | 60 | 1016.0 |
| 20260508143138 | 60 | 345 | 5.0 | 9.0 | 0.00 | 0.00 | 0.00 | 59 | 1016.0 |
| 20260508142634 | 60 | 201 | 4.0 | 9.0 | 0.00 | 0.00 | 0.00 | 60 | 1016.0 |
| 20260508142131 | 60 | 195 | 3.0 | 5.0 | 0.00 | 0.00 | 0.00 | 60 | 1016.0 |
| 20260508141628 | 60 | 241 | 3.0 | 12.0 | 0.00 | 0.00 | 0.00 | 57 | 1016.1 |
| 20260508141125 | 60 | 166 | 2.0 | 9.0 | 0.00 | 0.00 | 0.00 | 59 | 1016.2 |
| 20260508140622 | 60 | 216 | 9.0 | 10.0 | 0.00 | 0.00 | 0.00 | 58 | 1016.1 |
| 20260508140119 | 59 | 262 | 3.0 | 11.0 | 0.00 | 0.00 | 0.00 | 58 | 1016.2 |
| 20260508135614 | 59 | 129 | 7.0 | 7.0 | 0.00 | 0.00 | 0.00 | 58 | 1016.2 |
| 20260508135111 | 60 | 208 | 0.0 | 9.0 | 0.00 | 0.00 | 0.00 | 58 | 1016.4 |
| 20260508134608 | 60 | 246 | 4.0 | 11.0 | 0.00 | 0.00 | 0.00 | 57 | 1016.2 |
| 20260508134105 | 60 | 221 | 0.0 | 6.0 | 0.00 | 0.00 | 0.00 | 58 | 1016.3 |
| 20260508133601 | 60 | 278 | 2.0 | 7.0 | 0.00 | 0.00 | 0.00 | 60 | 1016.3 |
| 20260508133059 | 59 | 216 | 6.0 | 7.0 | 0.00 | 0.00 | 0.00 | 59 | 1016.3 |
| 20260508132556 | 58 | 219 | 10.0 | 14.0 | 0.00 | 0.00 | 0.00 | 59 | 1016.2 |
| 20260508132053 | 58 | 190 | 4.0 | 7.0 | 0.00 | 0.00 | 0.00 | 61 | 1016.2 |
| 20260508131548 | 57 | 216 | 9.0 | 9.0 | 0.00 | 0.00 | 0.00 | 61 | 1016.2 |
| 20260508131045 | 57 | 261 | 3.0 | 6.0 | 0.00 | 0.00 | 0.00 | 62 | 1016.4 |
| 20260508130542 | 57 | 0 | 0.0 | 9.0 | 0.00 | 0.00 | 0.00 | 63 | 1016.1 |
| 20260508130039 | 57 | 222 | 9.0 | 15.0 | 0.00 | 0.00 | 0.00 | 61 | 1016.1 |
| 20260508125534 | 57 | 212 | 5.0 | 5.0 | 0.00 | 0.00 | 0.00 | 63 | 1016.3 |
| 20260508125032 | 56 | 14 | 0.0 | 6.0 | 0.00 | 0.00 | 0.00 | 64 | 1016.2 |
| 20260508124530 | 55 | 212 | 2.0 | 8.0 | 0.00 | 0.00 | 0.00 | 63 | 1016.1 |
| 20260508124027 | 55 | 203 | 3.0 | 3.0 | 0.00 | 0.00 | 0.00 | 65 | 1016.2 |
| 20260508123526 | 54 | 244 | 5.0 | 8.0 | 0.00 | 0.00 | 0.00 | 64 | 1016.2 |
| 20260508123022 | 54 | 185 | 2.0 | 5.0 | 0.00 | 0.00 | 0.00 | 66 | 1016.3 |
| 20260508122519 | 53 | 199 | 3.0 | 6.0 | 0.00 | 0.00 | 0.00 | 66 | 1016.3 |
| 20260508122016 | 53 | 166 | 0.0 | 4.0 | 0.00 | 0.00 | 0.00 | 68 | 1016.2 |
| 20260508121514 | 52 | 228 | 3.0 | 5.0 | 0.00 | 0.00 | 0.00 | 69 | 1016.3 |
| 20260508121012 | 51 | 160 | 0.0 | 5.0 | 0.00 | 0.00 | 0.00 | 69 | 1016.1 |
| 20260508120509 | 51 | 165 | 0.0 | 3.0 | 0.00 | 0.00 | 0.00 | 70 | 1016.3 |
| 20260508120007 | 51 | 121 | 3.0 | 4.0 | 0.00 | 0.00 | 0.00 | 70 | 1016.1 |
| 20260508115504 | 51 | 221 | 0.0 | 5.0 | 0.00 | 0.00 | 0.00 | 71 | 1016.1 |
| 20260508115001 | 50 | 54 | 0.0 | 3.0 | 0.00 | 0.00 | 0.00 | 73 | 1016.0 |
| 20260508114458 | 49 | 192 | 0.0 | 2.0 | 0.00 | 0.00 | 0.00 | 73 | 1016.1 |
| 20260508113954 | 49 | 174 | 0.0 | 2.0 | 0.00 | 0.00 | 0.00 | 73 | 1015.7 |
| 20260508113452 | 49 | 206 | 0.0 | 2.0 | 0.00 | 0.00 | 0.00 | 73 | 1016.0 |
| 20260508112949 | 49 | 240 | 0.0 | 7.0 | 0.00 | 0.00 | 0.00 | 72 | 1015.7 |
| 20260508112445 | 49 | 172 | 3.0 | 9.0 | 0.00 | 0.00 | 0.00 | 73 | 1015.8 |
| 20260508111942 | 48 | 198 | 0.0 | 5.0 | 0.00 | 0.00 | 0.00 | 73 | 1015.7 |
| 20260508111439 | 49 | 230 | 4.0 | 5.0 | 0.00 | 0.00 | 0.00 | 73 | 1015.6 |
| 20260508110936 | 48 | 194 | 3.0 | 4.0 | 0.00 | 0.00 | 0.00 | 73 | 1015.5 |
| 20260508110434 | 48 | 120 | 0.0 | 6.0 | 0.00 | 0.00 | 0.00 | 74 | 1015.5 |
| 20260508105934 | 48 | 186 | 0.0 | 4.0 | 0.00 | 0.00 | 0.00 | 74 | 1015.8 |
| 20260508105430 | 48 | 180 | 0.0 | 3.0 | 0.00 | 0.00 | 0.00 | 73 | 1015.7 |
| 20260508104928 | 48 | 173 | 0.0 | 5.0 | 0.00 | 0.00 | 0.00 | 73 | 1015.6 |
| 20260508104425 | 48 | 245 | 3.0 | 5.0 | 0.00 | 0.00 | 0.00 | 72 | 1015.5 |
| 20260508103922 | 48 | 154 | 0.0 | 6.0 | 0.00 | 0.00 | 0.00 | 72 | 1015.5 |
| 20260508103419 | 48 | 215 | 0.0 | 3.0 | 0.00 | 0.00 | 0.00 | 72 | 1015.6 |
| 20260508102915 | 49 | 139 | 0.0 | 3.0 | 0.00 | 0.00 | 0.00 | 72 | 1015.6 |
| 20260508102414 | 48 | 161 | 0.0 | 3.0 | 0.00 | 0.00 | 0.00 | 72 | 1015.5 |
| 20260508101911 | 48 | 198 | 2.0 | 4.0 | 0.00 | 0.00 | 0.00 | 72 | 1015.3 |
| 20260508101408 | 48 | 187 | 0.0 | 3.0 | 0.00 | 0.00 | 0.00 | 72 | 1015.3 |
| 20260508100905 | 48 | 132 | 0.0 | 6.0 | 0.00 | 0.00 | 0.00 | 72 | 1015.6 |
| 20260508100405 | 48 | 206 | 0.0 | 6.0 | 0.00 | 0.00 | 0.00 | 72 | 1015.5 |
| 20260508095859 | 48 | 240 | 0.0 | 3.0 | 0.00 | 0.00 | 0.00 | 72 | 1015.5 |
| 20260508095358 | 48 | 123 | 0.0 | 6.0 | 0.00 | 0.00 | 0.00 | 72 | 1015.6 |
| 20260508094854 | 48 | 210 | 3.0 | 6.0 | 0.00 | 0.00 | 0.00 | 72 | 1015.6 |
| 20260508094351 | 48 | 196 | 3.0 | 7.0 | 0.00 | 0.00 | 0.00 | 72 | 1015.3 |
| 20260508093848 | 48 | 159 | 0.0 | 3.0 | 0.00 | 0.00 | 0.00 | 73 | 1015.2 |
| 20260508093345 | 48 | 180 | 3.0 | 3.0 | 0.00 | 0.00 | 0.00 | 73 | 1015.6 |
| 20260508092843 | 48 | 74 | 0.0 | 5.0 | 0.00 | 0.00 | 0.00 | 73 | 1015.6 |
| 20260508092341 | 48 | 209 | 0.0 | 3.0 | 0.00 | 0.00 | 0.00 | 73 | 1015.6 |
| 20260508091838 | 47 | 240 | 0.0 | 7.0 | 0.00 | 0.00 | 0.00 | 74 | 1015.8 |
| 20260508091335 | 47 | 191 | 2.0 | 3.0 | 0.00 | 0.00 | 0.00 | 74 | 1015.6 |
| 20260508090833 | 47 | 166 | 2.0 | 5.0 | 0.00 | 0.00 | 0.00 | 74 | 1015.5 |
| 20260508090331 | 46 | 98 | 0.0 | 5.0 | 0.00 | 0.00 | 0.00 | 74 | 1015.7 |
| 20260508085826 | 46 | 209 | 3.0 | 3.0 | 0.00 | 0.00 | 0.00 | 74 | 1015.3 |
| 20260508085323 | 46 | 216 | 3.0 | 3.0 | 0.00 | 0.00 | 0.00 | 74 | 1015.8 |
| 20260508084820 | 46 | 211 | 6.0 | 6.0 | 0.00 | 0.00 | 0.00 | 74 | 1015.7 |
| 20260508084317 | 46 | 175 | 3.0 | 6.0 | 0.00 | 0.00 | 0.00 | 75 | 1015.7 |
| 20260508083814 | 46 | 145 | 0.0 | 3.0 | 0.00 | 0.00 | 0.00 | 74 | 1015.8 |
| 20260508083312 | 46 | 239 | 0.0 | 5.0 | 0.00 | 0.00 | 0.00 | 75 | 1015.8 |
| 20260508082811 | 46 | 145 | 2.0 | 3.0 | 0.00 | 0.00 | 0.00 | 75 | 1015.5 |
| 20260508082309 | 46 | 169 | 3.0 | 5.0 | 0.00 | 0.00 | 0.00 | 75 | 1015.7 |
| 20260508081806 | 46 | 120 | 0.0 | 7.0 | 0.00 | 0.00 | 0.00 | 75 | 1015.8 |
| 20260508081303 | 46 | 120 | 0.0 | 4.0 | 0.00 | 0.00 | 0.00 | 74 | 1015.8 |
| 20260508080800 | 46 | 174 | 0.0 | 3.0 | 0.00 | 0.00 | 0.00 | 74 | 1015.5 |
| 20260508080258 | 46 | 66 | 0.0 | 3.0 | 0.00 | 0.00 | 0.00 | 74 | 1015.6 |
| 20260508075754 | 46 | 187 | 0.0 | 2.0 | 0.00 | 0.00 | 0.00 | 74 | 1015.6 |
| 20260508075251 | 46 | 240 | 2.0 | 3.0 | 0.00 | 0.00 | 0.00 | 74 | 1015.6 |
| 20260508074749 | 46 | 90 | 0.0 | 3.0 | 0.00 | 0.00 | 0.00 | 73 | 1015.5 |
| 20260508074246 | 47 | 151 | 0.0 | 3.0 | 0.00 | 0.00 | 0.00 | 72 | 1015.7 |
| 20260508073743 | 47 | 114 | 0.0 | 4.0 | 0.00 | 0.00 | 0.00 | 72 | 1015.6 |
| 20260508073241 | 47 | 237 | 0.0 | 6.0 | 0.00 | 0.00 | 0.00 | 72 | 1015.5 |
| 20260508072737 | 47 | 157 | 2.0 | 5.0 | 0.00 | 0.00 | 0.00 | 72 | 1015.7 |
| 20260508072234 | 47 | 96 | 2.0 | 4.0 | 0.00 | 0.00 | 0.00 | 71 | 1015.6 |
| 20260508071731 | 47 | 173 | 2.0 | 4.0 | 0.00 | 0.00 | 0.00 | 71 | 1015.7 |
| 20260508071229 | 47 | 111 | 2.0 | 3.0 | 0.00 | 0.00 | 0.00 | 70 | 1015.6 |
| 20260508070726 | 48 | 66 | 0.0 | 4.0 | 0.00 | 0.00 | 0.00 | 69 | 1015.9 |
| 20260508070225 | 48 | 160 | 2.0 | 6.0 | 0.00 | 0.00 | 0.00 | 69 | 1016.0 |
| 20260508065722 | 48 | 289 | 3.0 | 7.0 | 0.00 | 0.00 | 0.00 | 69 | 1016.0 |
| 20260508065220 | 48 | 203 | 0.0 | 7.0 | 0.00 | 0.00 | 0.00 | 69 | 1016.0 |
| 20260508064717 | 48 | 194 | 2.0 | 5.0 | 0.00 | 0.00 | 0.00 | 69 | 1015.7 |
| 20260508064215 | 48 | 23 | 0.0 | 4.0 | 0.00 | 0.00 | 0.00 | 69 | 1015.8 |
| 20260508063713 | 48 | 277 | 5.0 | 6.0 | 0.00 | 0.00 | 0.00 | 68 | 1016.1 |
| 20260508063210 | 48 | 204 | 0.0 | 5.0 | 0.00 | 0.00 | 0.00 | 68 | 1016.1 |
| 20260508062707 | 49 | 180 | 0.0 | 6.0 | 0.00 | 0.00 | 0.00 | 68 | 1016.1 |
| 20260508062204 | 49 | 194 | 4.0 | 7.0 | 0.00 | 0.00 | 0.00 | 68 | 1016.0 |
| 20260508061701 | 48 | 129 | 3.0 | 4.0 | 0.00 | 0.00 | 0.00 | 68 | 1016.2 |
| 20260508061159 | 48 | 212 | 4.0 | 6.0 | 0.00 | 0.00 | 0.00 | 68 | 1016.0 |
| 20260508060655 | 48 | 206 | 0.0 | 3.0 | 0.00 | 0.00 | 0.00 | 67 | 1016.1 |
| 20260508060153 | 49 | 164 | 3.0 | 5.0 | 0.00 | 0.00 | 0.00 | 67 | 1016.1 |
| 20260508055648 | 49 | 257 | 2.0 | 6.0 | 0.00 | 0.00 | 0.00 | 67 | 1016.1 |
| 20260508055145 | 49 | 180 | 2.0 | 5.0 | 0.00 | 0.00 | 0.00 | 67 | 1016.1 |
| 20260508054641 | 49 | 154 | 0.0 | 3.0 | 0.00 | 0.00 | 0.00 | 66 | 1016.2 |
| 20260508054139 | 49 | 234 | 2.0 | 7.0 | 0.00 | 0.00 | 0.00 | 66 | 1016.3 |
| 20260508053636 | 49 | 199 | 3.0 | 6.0 | 0.00 | 0.00 | 0.00 | 66 | 1016.0 |
| 20260508053134 | 50 | 199 | 0.0 | 5.0 | 0.00 | 0.00 | 0.00 | 65 | 1016.1 |
| 20260508052631 | 50 | 241 | 0.0 | 9.0 | 0.00 | 0.00 | 0.00 | 65 | 1016.0 |
| 20260508052128 | 50 | 218 | 5.0 | 7.0 | 0.00 | 0.00 | 0.00 | 65 | 1016.4 |
| 20260508051624 | 49 | 240 | 0.0 | 4.0 | 0.00 | 0.00 | 0.00 | 66 | 1016.0 |
| 20260508051119 | 49 | 135 | 3.0 | 7.0 | 0.00 | 0.00 | 0.00 | 66 | 1016.2 |
| 20260508050615 | 50 | 180 | 2.0 | 9.0 | 0.00 | 0.00 | 0.00 | 66 | 1016.1 |
| 20260508050114 | 49 | 254 | 3.0 | 5.0 | 0.00 | 0.00 | 0.00 | 66 | 1016.2 |
| 20260508045609 | 49 | 239 | 5.0 | 6.0 | 0.00 | 0.00 | 0.00 | 66 | 1016.1 |
| 20260508045107 | 49 | 195 | 0.0 | 6.0 | 0.00 | 0.00 | 0.00 | 66 | 1016.2 |
| 20260508044604 | 49 | 172 | 0.0 | 5.0 | 0.00 | 0.00 | 0.00 | 66 | 1016.1 |
| 20260508044100 | 50 | 239 | 0.0 | 6.0 | 0.00 | 0.00 | 0.00 | 66 | 1016.1 |
| 20260508043557 | 50 | 200 | 2.0 | 3.0 | 0.00 | 0.00 | 0.00 | 66 | 1016.2 |
| 20260508043055 | 50 | 198 | 3.0 | 8.0 | 0.00 | 0.00 | 0.00 | 66 | 1016.2 |
| 20260508042551 | 50 | 184 | 0.0 | 4.0 | 0.00 | 0.00 | 0.00 | 66 | 1016.0 |
| 20260508042049 | 50 | 216 | 0.0 | 5.0 | 0.00 | 0.00 | 0.00 | 65 | 1016.1 |
| 20260508041545 | 50 | 241 | 3.0 | 6.0 | 0.00 | 0.00 | 0.00 | 65 | 1016.3 |
| 20260508041041 | 50 | 90 | 0.0 | 4.0 | 0.00 | 0.00 | 0.00 | 66 | 1016.1 |
| 20260508040538 | 50 | 185 | 2.0 | 4.0 | 0.00 | 0.00 | 0.00 | 66 | 1016.0 |
| 20260508040036 | 50 | 262 | 0.0 | 3.0 | 0.00 | 0.00 | 0.00 | 65 | 1015.9 |
| 20260508035532 | 50 | 180 | 3.0 | 3.0 | 0.00 | 0.00 | 0.00 | 65 | 1016.1 |
| 20260508035030 | 51 | 203 | 0.0 | 4.0 | 0.00 | 0.00 | 0.00 | 65 | 1016.1 |
| 20260508034527 | 51 | 174 | 0.0 | 3.0 | 0.00 | 0.00 | 0.00 | 65 | 1016.3 |
| 20260508034023 | 51 | 114 | 0.0 | 3.0 | 0.00 | 0.00 | 0.00 | 66 | 1016.2 |
| 20260508033521 | 50 | 172 | 0.0 | 3.0 | 0.00 | 0.00 | 0.00 | 67 | 1016.1 |
| 20260508033019 | 50 | 186 | 0.0 | 0.0 | 0.00 | 0.00 | 0.00 | 68 | 1016.1 |
| 20260508032516 | 50 | 173 | 0.0 | 0.0 | 0.00 | 0.00 | 0.00 | 68 | 1016.1 |
| 20260508032013 | 50 | 106 | 0.0 | 2.0 | 0.00 | 0.00 | 0.00 | 68 | 1016.1 |
| 20260508031510 | 50 | 151 | 0.0 | 0.0 | 0.00 | 0.00 | 0.00 | 68 | 1016.1 |
| 20260508031005 | 50 | 131 | 3.0 | 3.0 | 0.00 | 0.00 | 0.00 | 68 | 1016.1 |
| 20260508030503 | 51 | 220 | 0.0 | 0.0 | 0.00 | 0.00 | 0.00 | 68 | 1016.3 |
| 20260508030001 | 50 | 165 | 0.0 | 2.0 | 0.00 | 0.00 | 0.00 | 68 | 1016.2 |
| 20260508025456 | 50 | 103 | 0.0 | 0.0 | 0.00 | 0.00 | 0.00 | 67 | 1016.3 |
| 20260508024954 | 51 | 103 | 0.0 | 0.0 | 0.00 | 0.00 | 0.00 | 68 | 1016.2 |
| 20260508024449 | 50 | 103 | 0.0 | 0.0 | 0.00 | 0.00 | 0.00 | 67 | 1016.3 |
| 20260508023946 | 50 | 103 | 0.0 | 0.0 | 0.00 | 0.00 | 0.00 | 67 | 1016.2 |
| 20260508023443 | 51 | 246 | 0.0 | 0.0 | 0.00 | 0.00 | 0.00 | 68 | 1016.2 |
| 20260508022941 | 50 | 246 | 0.0 | 0.0 | 0.00 | 0.00 | 0.00 | 69 | 1015.9 |
| 20260508022436 | 50 | 157 | 0.0 | 2.0 | 0.00 | 0.00 | 0.00 | 70 | 1016.0 |
| 20260508021933 | 50 | 98 | 0.0 | 0.0 | 0.00 | 0.00 | 0.00 | 70 | 1015.9 |
| 20260508021430 | 49 | 98 | 0.0 | 3.0 | 0.00 | 0.00 | 0.00 | 71 | 1016.1 |
| 20260508020925 | 49 | 99 | 0.0 | 0.0 | 0.00 | 0.00 | 0.00 | 71 | 1016.1 |
| 20260508020423 | 49 | 99 | 0.0 | 0.0 | 0.00 | 0.00 | 0.00 | 70 | 1016.3 |
| 20260508015920 | 49 | 99 | 0.0 | 0.0 | 0.00 | 0.00 | 0.00 | 68 | 1016.0 |
| 20260508015418 | 49 | 99 | 0.0 | 0.0 | 0.00 | 0.00 | 0.00 | 68 | 1016.0 |
| 20260508014914 | 50 | 99 | 0.0 | 0.0 | 0.00 | 0.00 | 0.00 | 67 | 1016.0 |
| 20260508014411 | 50 | 99 | 0.0 | 0.0 | 0.00 | 0.00 | 0.00 | 66 | 1015.7 |
| 20260508013906 | 51 | 99 | 0.0 | 0.0 | 0.00 | 0.00 | 0.00 | 65 | 1015.8 |
| 20260508013403 | 51 | 99 | 0.0 | 0.0 | 0.00 | 0.00 | 0.00 | 64 | 1015.9 |
| 20260508012900 | 52 | 106 | 0.0 | 0.0 | 0.00 | 0.00 | 0.00 | 64 | 1016.0 |
| 20260508012357 | 52 | 106 | 0.0 | 0.0 | 0.00 | 0.00 | 0.00 | 63 | 1016.1 |
| 20260508011855 | 52 | 106 | 0.0 | 0.0 | 0.00 | 0.00 | 0.00 | 63 | 1015.9 |
| 20260508011353 | 51 | 106 | 0.0 | 0.0 | 0.00 | 0.00 | 0.00 | 64 | 1016.0 |
| 20260508010849 | 51 | 106 | 0.0 | 2.0 | 0.00 | 0.00 | 0.00 | 63 | 1015.8 |
| 20260508010347 | 51 | 140 | 0.0 | 3.0 | 0.00 | 0.00 | 0.00 | 62 | 1015.8 |
| 20260508005844 | 51 | 99 | 0.0 | 0.0 | 0.00 | 0.00 | 0.00 | 60 | 1016.1 |
| 20260508005340 | 52 | 99 | 0.0 | 0.0 | 0.00 | 0.00 | 0.00 | 59 | 1015.8 |
| 20260508004837 | 52 | 74 | 0.0 | 0.0 | 0.00 | 0.00 | 0.00 | 58 | 1016.0 |
| 20260508004333 | 52 | 74 | 0.0 | 0.0 | 0.00 | 0.00 | 0.00 | 58 | 1016.3 |
| 20260508003830 | 52 | 74 | 0.0 | 0.0 | 0.00 | 0.00 | 0.00 | 58 | 1016.0 |
| 20260508003327 | 52 | 74 | 0.0 | 0.0 | 0.00 | 0.00 | 0.00 | 58 | 1015.8 |
| 20260508002824 | 53 | 74 | 0.0 | 0.0 | 0.00 | 0.00 | 0.00 | 56 | 1015.9 |
| 20260508002321 | 53 | 74 | 0.0 | 0.0 | 0.00 | 0.00 | 0.00 | 56 | 1016.0 |
| 20260508001817 | 53 | 74 | 0.0 | 0.0 | 0.00 | 0.00 | 0.00 | 54 | 1015.7 |
| 20260508001313 | 54 | 74 | 0.0 | 0.0 | 0.00 | 0.00 | 0.00 | 54 | 1016.0 |
| 20260508000809 | 54 | 74 | 0.0 | 2.0 | 0.00 | 0.00 | 0.00 | 54 | 1015.9 |
| 20260508000306 | 55 | 90 | 0.0 | 3.0 | 0.00 | 0.00 | 0.00 | 54 | 1015.7 |
| 20260507235802 | 55 | 270 | 0.0 | 0.0 | 0.00 | 0.00 | 0.00 | 53 | 1015.7 |
| 20260507235300 | 56 | 90 | 0.0 | 2.0 | 0.00 | 0.00 | 0.00 | 53 | 1015.7 |
| 20260507234757 | 56 | 96 | 0.0 | 3.0 | 0.00 | 0.00 | 0.00 | 51 | 1015.6 |
| 20260507234253 | 56 | 180 | 0.0 | 4.0 | 0.00 | 0.00 | 0.00 | 50 | 1015.5 |
| 20260507233749 | 57 | 200 | 0.0 | 5.0 | 0.00 | 0.00 | 0.00 | 51 | 1015.6 |
| 20260507233248 | 57 | 250 | 0.0 | 3.0 | 0.00 | 0.00 | 0.00 | 50 | 1015.7 |
| 20260507232745 | 57 | 342 | 3.0 | 4.0 | 0.00 | 0.00 | 0.00 | 51 | 1015.8 |
| 20260507232242 | 57 | 229 | 0.0 | 0.0 | 0.00 | 0.00 | 0.00 | 50 | 1016.0 |
| 20260507231738 | 57 | 303 | 3.0 | 5.0 | 0.00 | 0.00 | 0.00 | 48 | 1015.9 |
| 20260507231235 | 57 | 303 | 0.0 | 0.0 | 0.00 | 0.00 | 0.00 | 50 | 1015.8 |
| 20260507230732 | 56 | 317 | 5.0 | 5.0 | 0.00 | 0.00 | 0.00 | 50 | 1015.7 |
| 20260507230230 | 56 | 0 | 2.0 | 3.0 | 0.00 | 0.00 | 0.00 | 49 | 1015.6 |
| 20260507225728 | 57 | 199 | 3.0 | 4.0 | 0.00 | 0.00 | 0.00 | 48 | 1015.7 |